Time;durP1;ratioP1;P1;durP2;ratioP2;P2;SDS_P1;SDS_P2;PMS_P1;PMS_P2;Temp;Humidity;BMP_temperature;BMP_pressure;BME280_temperature;BME280_humidity;BME280_pressure;Samples;Min_cycle;Max_cycle;Signal;HPM_P1;HPM_P2
2022/12/27 00:00:32;;;;;;;3.28;0.80;;;;;;;7.49;64.99;100772.59;1087363;54;20035;-82
2022/12/27 00:01:33;;;;;;;5.25;1.00;;;;;;;7.38;65.03;100775.16;1087347;54;20034;-82
2022/12/27 00:02:38;;;;;;;5.43;0.85;;;;;;;7.34;65.18;100779.84;1087450;54;20042;-80
2022/12/27 00:03:41;;;;;;;2.60;0.85;;;;;;;7.53;64.90;100774.09;1087467;54;20030;-82
2022/12/27 00:04:45;;;;;;;2.80;1.00;;;;;;;7.43;65.09;100776.53;1087068;54;20764;-83
2022/12/27 00:05:47;;;;;;;3.72;1.48;;;;;;;7.53;64.83;100779.44;1087374;54;20031;-82
2022/12/27 00:06:51;;;;;;;3.83;1.35;;;;;;;7.51;64.75;100780.50;1087457;54;20034;-81
2022/12/27 00:07:54;;;;;;;4.15;1.50;;;;;;;7.47;64.75;100785.16;1087397;54;21395;-81
2022/12/27 00:08:58;;;;;;;3.80;1.15;;;;;;;7.49;64.77;100783.25;1087319;54;20057;-82
2022/12/27 00:10:03;;;;;;;3.15;1.20;;;;;;;7.48;65.03;100786.88;1092429;39;20335;-81
2022/12/27 00:11:11;;;;;;;2.95;0.90;;;;;;;7.55;64.96;100797.94;1087296;54;20035;-81
2022/12/27 00:12:12;;;;;;;4.72;1.20;;;;;;;7.62;64.78;100799.19;1087420;54;20065;-83
2022/12/27 00:13:16;;;;;;;2.25;0.90;;;;;;;7.60;64.86;100803.81;1087853;39;20568;-83
2022/12/27 00:14:18;;;;;;;3.30;1.08;;;;;;;7.47;64.97;100811.75;1087583;46;20061;-81
2022/12/27 00:15:22;;;;;;;3.00;0.82;;;;;;;7.54;65.07;100813.06;1087330;54;20782;-82
2022/12/27 00:16:23;;;;;;;3.38;1.08;;;;;;;7.57;65.28;100801.34;1087343;54;20064;-81
2022/12/27 00:17:28;;;;;;;2.70;0.80;;;;;;;7.55;65.18;100808.59;1087188;54;20668;-82
2022/12/27 00:18:30;;;;;;;2.15;0.90;;;;;;;7.61;64.96;100806.34;1087448;54;20061;-84
2022/12/27 00:19:34;;;;;;;3.72;1.00;;;;;;;7.48;65.51;100814.34;1087273;54;20077;-83
2022/12/27 00:20:35;;;;;;;3.28;0.90;;;;;;;7.28;65.80;100809.53;1087191;54;20097;-83
2022/12/27 00:21:40;;;;;;;3.22;0.90;;;;;;;7.25;65.85;100815.03;1087276;54;20053;-83
2022/12/27 00:22:41;;;;;;;2.55;0.82;;;;;;;7.42;65.69;100812.09;1087306;54;20061;-82
2022/12/27 00:23:48;;;;;;;2.55;0.85;;;;;;;7.39;65.73;100814.97;1087505;54;20095;-84
2022/12/27 00:24:50;;;;;;;3.55;0.82;;;;;;;7.38;65.55;100818.59;1087544;54;20793;-84
2022/12/27 00:26:02;;;;;;;3.08;0.80;;;;;;;7.47;65.54;100814.41;1087474;54;20038;-84
2022/12/27 00:27:03;;;;;;;2.75;0.90;;;;;;;7.50;65.60;100822.19;1087653;54;20031;-84
2022/12/27 00:28:07;;;;;;;2.42;0.77;;;;;;;7.41;65.84;100825.50;1087564;54;20034;-84
2022/12/27 00:29:10;;;;;;;3.75;1.00;;;;;;;7.37;65.79;100821.34;1087538;54;20062;-85
2022/12/27 00:30:14;;;;;;;2.30;0.88;;;;;;;7.44;65.76;100822.63;1087598;54;20061;-85
2022/12/27 00:31:18;;;;;;;4.50;1.10;;;;;;;7.37;65.62;100818.69;1087480;54;20758;-85
2022/12/27 00:32:22;;;;;;;3.72;1.17;;;;;;;7.18;66.08;100822.59;1087240;54;20030;-84
2022/12/27 00:33:23;;;;;;;3.63;1.10;;;;;;;7.15;66.06;100830.78;1087625;54;20046;-86
2022/12/27 00:34:28;;;;;;;2.45;1.00;;;;;;;7.16;66.07;100829.84;1087516;54;20041;-86
2022/12/27 00:35:29;;;;;;;2.50;1.00;;;;;;;7.02;66.25;100831.59;1087577;54;20034;-84
2022/12/27 00:36:33;;;;;;;3.03;1.00;;;;;;;7.01;66.19;100835.22;1087537;54;20053;-84
2022/12/27 00:37:35;;;;;;;3.00;0.70;;;;;;;7.01;66.55;100827.25;1087558;54;21155;-85
2022/12/27 00:38:39;;;;;;;2.90;0.82;;;;;;;7.00;66.69;100838.81;1088020;39;20591;-84
2022/12/27 00:39:40;;;;;;;3.40;1.02;;;;;;;6.94;66.70;100841.91;1087563;54;20054;-85
2022/12/27 00:40:45;;;;;;;2.65;0.82;;;;;;;6.89;66.57;100838.72;1087595;54;20046;-87
2022/12/27 00:41:49;;;;;;;2.97;0.88;;;;;;;6.84;66.43;100838.16;1087643;54;20042;-85
2022/12/27 00:42:53;;;;;;;3.63;1.00;;;;;;;6.78;66.81;100838.56;1087566;54;20675;-83
2022/12/27 00:43:55;;;;;;;3.83;1.13;;;;;;;6.80;66.77;100844.63;1087559;54;20777;-84
2022/12/27 00:44:59;;;;;;;3.53;0.98;;;;;;;6.72;67.02;100848.63;1087633;54;20011;-84
2022/12/27 00:46:01;;;;;;;3.47;1.00;;;;;;;6.72;66.89;100850.44;1087361;54;20030;-81
2022/12/27 00:47:05;;;;;;;3.05;1.02;;;;;;;6.68;66.77;100841.81;1087409;54;20018;-82
2022/12/27 00:48:07;;;;;;;3.55;0.95;;;;;;;6.75;66.51;100852.03;1087422;54;20061;-81
2022/12/27 00:49:11;;;;;;;3.65;1.00;;;;;;;6.66;66.36;100858.81;1087387;54;20037;-81
2022/12/27 00:50:12;;;;;;;3.92;0.98;;;;;;;6.82;66.29;100859.53;1087393;54;20019;-81
2022/12/27 00:51:19;;;;;;;3.08;1.10;;;;;;;6.69;65.85;100859.47;1087216;54;20042;-82
2022/12/27 00:52:20;;;;;;;2.67;0.98;;;;;;;6.70;66.18;100861.19;1090628;39;20070;-82
2022/12/27 00:53:24;;;;;;;3.47;1.20;;;;;;;6.85;65.82;100861.94;1087402;54;20069;-82
2022/12/27 00:54:26;;;;;;;2.63;1.00;;;;;;;6.98;65.56;100863.81;1087352;54;21139;-80
2022/12/27 00:55:30;;;;;;;2.33;0.80;;;;;;;6.89;65.46;100865.28;1087488;54;20082;-84
2022/12/27 00:56:32;;;;;;;2.78;0.88;;;;;;;6.90;65.72;100866.97;1087563;54;20069;-85
2022/12/27 00:57:38;;;;;;;2.83;0.90;;;;;;;6.91;65.61;100868.69;1087629;54;20046;-86
2022/12/27 00:58:40;;;;;;;2.58;1.15;;;;;;;6.99;65.69;100863.69;1087629;54;20062;-86
2022/12/27 00:59:44;;;;;;;3.15;1.00;;;;;;;6.87;65.72;100867.19;1087998;39;21044;-83
2022/12/27 01:00:46;;;;;;;3.10;1.08;;;;;;;6.90;65.69;100866.97;1087550;54;20049;-86
2022/12/27 01:01:50;;;;;;;4.72;1.17;;;;;;;6.93;65.40;100864.13;1087518;54;20014;-83
2022/12/27 01:02:52;;;;;;;2.15;0.80;;;;;;;7.02;65.38;100868.81;1087390;54;20061;-84
2022/12/27 01:03:56;;;;;;;2.95;1.00;;;;;;;6.99;65.29;100869.03;1087474;54;20031;-84
2022/12/27 01:04:57;;;;;;;2.17;0.70;;;;;;;6.96;65.19;100871.03;1087393;54;20023;-86
2022/12/27 01:06:06;;;;;;;3.03;1.00;;;;;;;6.93;65.26;100880.06;1087411;54;20034;-83
2022/12/27 01:07:08;;;;;;;3.22;0.80;;;;;;;6.82;65.52;100875.47;1087446;54;20038;-84
2022/12/27 01:08:12;;;;;;;3.42;0.98;;;;;;;6.81;65.36;100881.72;1087527;54;20047;-86
2022/12/27 01:09:13;;;;;;;2.75;1.00;;;;;;;6.87;65.27;100888.44;1087418;54;20041;-84
2022/12/27 01:10:17;;;;;;;3.83;0.90;;;;;;;6.78;65.33;100876.59;1087633;54;20034;-84
2022/12/27 01:11:19;;;;;;;4.43;1.20;;;;;;;6.74;65.04;100887.53;1087407;54;20046;-85
2022/12/27 01:12:23;;;;;;;2.67;0.90;;;;;;;6.66;65.29;100880.09;1087598;54;20041;-85
2022/12/27 01:13:27;;;;;;;5.43;1.30;;;;;;;6.39;65.05;100884.41;1088336;47;20057;-84
2022/12/27 01:14:32;;;;;;;5.45;1.15;;;;;;;6.28;65.00;100886.88;1087599;54;20040;-85
2022/12/27 01:15:33;;;;;;;2.35;0.90;;;;;;;6.47;64.86;100891.00;1087629;54;20039;-85
2022/12/27 01:16:39;;;;;;;3.75;1.00;;;;;;;6.59;64.38;100890.25;1087827;54;20041;-84
2022/12/27 01:17:40;;;;;;;4.10;0.90;;;;;;;6.58;64.52;100892.97;1087860;54;20770;-84
2022/12/27 01:18:46;;;;;;;3.55;0.90;;;;;;;6.64;64.16;100892.59;1087922;54;20019;-85
2022/12/27 01:19:48;;;;;;;4.50;0.93;;;;;;;6.50;64.47;100896.16;1087821;54;20023;-85
2022/12/27 01:20:52;;;;;;;4.43;0.95;;;;;;;6.39;63.86;100900.34;1087934;54;20077;-84
2022/12/27 01:21:53;;;;;;;3.33;0.80;;;;;;;6.13;64.17;100903.78;1087955;54;20045;-85
2022/12/27 01:22:57;;;;;;;2.30;0.80;;;;;;;6.04;64.35;100905.19;1087823;54;20034;-83
2022/12/27 01:23:59;;;;;;;3.47;1.00;;;;;;;6.03;64.61;100909.66;1087892;54;20034;-83
2022/12/27 01:25:03;;;;;;;3.33;0.80;;;;;;;6.12;64.38;100904.72;1087940;54;20041;-84
2022/12/27 01:26:07;;;;;;;5.07;1.15;;;;;;;6.11;64.04;100913.63;1089833;39;20983;-85
2022/12/27 01:27:11;;;;;;;3.72;0.90;;;;;;;5.97;64.00;100909.97;1087957;54;20049;-85
2022/12/27 01:28:12;;;;;;;3.33;1.10;;;;;;;6.14;63.96;100916.09;1087876;54;20022;-85
2022/12/27 01:29:19;;;;;;;3.00;0.85;;;;;;;5.90;63.63;100911.28;1087942;54;20069;-83
2022/12/27 01:30:21;;;;;;;2.30;0.80;;;;;;;5.90;64.15;100913.94;1087879;54;20066;-84
2022/12/27 01:31:28;;;;;;;3.15;0.80;;;;;;;5.85;63.48;100916.88;1088650;46;20010;-85
2022/12/27 01:32:31;;;;;;;2.00;0.70;;;;;;;5.78;63.66;100920.88;1089660;39;20622;-84
2022/12/27 01:33:35;;;;;;;3.58;1.10;;;;;;;5.82;63.71;100916.22;1087952;54;20804;-84
2022/12/27 01:34:37;;;;;;;3.45;0.88;;;;;;;5.81;63.74;100927.78;1087903;54;20046;-83
2022/12/27 01:35:41;;;;;;;2.95;0.82;;;;;;;5.66;63.64;100933.06;1087974;54;20022;-85
2022/12/27 01:36:43;;;;;;;4.68;1.08;;;;;;;5.68;63.70;100935.63;1088479;46;20104;-84
2022/12/27 01:37:47;;;;;;;5.25;1.10;;;;;;;5.67;63.62;100929.44;1087860;54;20042;-82
2022/12/27 01:38:49;;;;;;;2.97;0.85;;;;;;;5.66;63.63;100940.16;1086620;54;20035;-80
2022/12/27 01:39:53;;;;;;;3.35;1.00;;;;;;;5.75;63.65;100942.25;1086432;54;20061;-83
2022/12/27 01:40:55;;;;;;;3.08;0.80;;;;;;;5.72;63.84;100939.78;1086358;54;20057;-81
2022/12/27 01:43:21;;;;;;;3.25;1.00;;;;;;;5.54;64.07;100941.75;1085875;54;20094;-80
2022/12/27 01:45:01;;;;;;;2.63;0.80;;;;;;;5.49;63.78;100943.78;1086649;54;20046;-81
2022/12/27 01:46:05;;;;;;;4.80;1.00;;;;;;;5.47;64.13;100941.25;1086635;54;20049;-80
2022/12/27 01:47:18;;;;;;;2.70;0.90;;;;;;;5.50;64.11;100940.22;1086793;54;20034;-79
2022/12/27 01:48:25;;;;;;;6.32;1.15;;;;;;;5.49;63.98;100941.16;1087462;54;20043;-82
2022/12/27 01:49:27;;;;;;;4.15;1.33;;;;;;;5.50;63.99;100945.50;1088177;54;20065;-83
2022/12/27 01:50:35;;;;;;;3.15;0.93;;;;;;;5.41;63.98;100941.63;1088111;54;20029;-83
2022/12/27 01:51:37;;;;;;;3.85;1.10;;;;;;;5.47;64.10;100934.16;1090264;46;20053;-84
2022/12/27 01:52:45;;;;;;;3.92;1.15;;;;;;;5.43;64.25;100934.44;1089529;46;20090;-83
2022/12/27 01:53:51;;;;;;;3.00;0.90;;;;;;;5.39;64.25;100930.25;1088211;54;20042;-83
2022/12/27 01:54:57;;;;;;;2.80;1.00;;;;;;;5.50;63.98;100933.13;1088583;54;20037;-84
2022/12/27 01:56:00;;;;;;;5.05;0.93;;;;;;;5.38;63.96;100934.69;1088455;54;20035;-84
2022/12/27 01:57:11;;;;;;;4.13;0.85;;;;;;;5.34;63.80;100940.28;1095368;39;21037;-83
2022/12/27 01:58:20;;;;;;;3.67;0.90;;;;;;;5.35;64.08;100941.94;1088502;54;20038;-84
2022/12/27 01:59:21;;;;;;;2.47;1.00;;;;;;;5.43;64.05;100932.63;1088491;54;20026;-83
2022/12/27 02:00:26;;;;;;;3.17;1.00;;;;;;;5.45;64.27;100938.69;1088565;54;20075;-84
2022/12/27 02:01:32;;;;;;;4.43;1.02;;;;;;;5.32;64.05;100935.03;1088510;54;20714;-83
2022/12/27 02:02:37;;;;;;;5.00;0.90;;;;;;;5.24;64.35;100937.28;1088399;54;20023;-84
2022/12/27 02:03:41;;;;;;;3.78;1.08;;;;;;;5.17;64.52;100939.44;1088330;54;20039;-83
2022/12/27 02:04:46;;;;;;;5.22;1.00;;;;;;;5.23;64.73;100939.09;1088368;54;20114;-82
2022/12/27 02:05:49;;;;;;;4.45;1.20;;;;;;;5.21;64.72;100937.44;1088364;46;20031;-81
2022/12/27 02:06:54;;;;;;;2.97;0.93;;;;;;;5.32;64.54;100940.34;1087468;54;20038;-82
2022/12/27 02:08:15;;;;;;;3.38;0.98;;;;;;;5.21;64.38;100937.44;1092736;31;20715;-81
2022/12/27 02:09:27;;;;;;;5.47;1.30;;;;;;;5.18;64.38;100932.34;1087431;54;20688;-82
2022/12/27 02:10:30;;;;;;;4.72;1.10;;;;;;;5.21;64.56;100938.31;1087688;54;20703;-83
2022/12/27 02:12:53;;;;;;;3.42;1.20;;;;;;;5.14;64.75;100945.75;1087686;54;20078;-83
2022/12/27 02:13:56;;;;;;;7.38;1.83;;;;;;;5.17;64.62;100949.19;1087666;54;20040;-83
2022/12/27 02:15:01;;;;;;;3.63;0.90;;;;;;;5.11;64.78;100945.94;1087754;54;20027;-82
2022/12/27 02:16:12;;;;;;;4.90;0.90;;;;;;;5.24;64.76;100947.88;1088495;46;20098;-82
2022/12/27 02:17:19;;;;;;;4.28;1.00;;;;;;;5.11;64.92;100942.44;1088316;54;20815;-82
2022/12/27 02:18:23;;;;;;;4.18;1.23;;;;;;;5.17;64.81;100951.84;1088420;54;20055;-84
2022/12/27 02:19:51;;;;;;;4.75;1.33;;;;;;;5.28;64.71;100950.28;1088496;54;20053;-83
2022/12/27 02:21:28;;;;;;;4.45;1.20;;;;;;;5.17;64.70;100951.84;1088393;54;20019;-83
2022/12/27 02:24:31;;;;;;;2.95;0.80;;;;;;;5.08;64.63;100959.38;1088271;54;20034;-83
2022/12/27 02:25:57;;;;;;;4.97;1.13;;;;;;;5.10;64.49;100953.97;1087087;54;20042;-80
2022/12/27 02:27:03;;;;;;;6.32;1.40;;;;;;;5.11;64.62;100961.84;1087364;54;20030;-79
2022/12/27 02:28:18;;;;;;;3.58;1.17;;;;;;;5.14;64.64;100963.47;1087159;54;20034;-80
2022/12/27 02:29:55;;;;;;;2.85;0.85;;;;;;;4.96;65.12;100952.09;1087378;54;20050;-82
2022/12/27 02:31:06;;;;;;;6.28;1.58;;;;;;;4.91;65.48;100956.81;1086991;54;20122;-80
2022/12/27 02:32:08;;;;;;;;;;;;;;;4.96;65.81;100960.06;1087231;54;20038;-81
2022/12/27 02:33:16;;;;;;;4.55;1.08;;;;;;;4.99;65.33;100959.91;1086595;54;19942;-80
2022/12/27 02:34:22;;;;;;;3.55;0.98;;;;;;;4.92;65.41;100958.50;1087061;54;20035;-81
2022/12/27 02:35:32;;;;;;;2.97;1.00;;;;;;;4.96;65.43;100960.06;1087078;54;20030;-80
2022/12/27 02:36:37;;;;;;;4.30;1.00;;;;;;;4.85;65.36;100960.66;1087332;54;20034;-80
2022/12/27 02:37:46;;;;;;;4.65;1.10;;;;;;;4.90;65.40;100965.72;1087263;54;20034;-80
2022/12/27 02:38:51;;;;;;;5.25;1.35;;;;;;;4.89;65.62;100964.84;1087321;54;20038;-80
2022/12/27 02:53:02;;;;;;;4.82;1.15;;;;;;;4.87;65.91;100966.72;1090866;39;20631;-81
2022/12/27 02:54:16;;;;;;;4.28;0.90;;;;;;;4.83;65.66;100981.94;1087210;54;20091;-81
2022/12/27 02:55:31;;;;;;;3.28;1.02;;;;;;;4.78;66.05;100977.81;1087239;54;20065;-81
2022/12/27 02:58:19;;;;;;;2.60;1.00;;;;;;;4.64;66.20;100982.09;1087103;54;20094;-80
2022/12/27 02:59:36;;;;;;;5.32;1.23;;;;;;;4.67;66.42;100986.38;1087192;54;20065;-81
2022/12/27 03:03:58;;;;;;;3.88;1.00;;;;;;;4.53;67.22;100976.53;1087155;54;20082;-81
2022/12/27 03:05:16;;;;;;;5.32;1.20;;;;;;;4.48;67.44;100981.22;1087207;54;20837;-80
2022/12/27 03:06:40;;;;;;;4.05;1.10;;;;;;;4.48;67.49;100975.94;1087151;54;20031;-80
2022/12/27 03:07:53;;;;;;;5.15;1.17;;;;;;;4.49;67.66;100973.19;1087502;54;20049;-81
2022/12/27 03:09:06;;;;;;;3.75;1.23;;;;;;;4.57;67.76;100979.84;1087484;54;20039;-81
2022/12/27 03:16:20;;;;;;;4.63;1.30;;;;;;;4.61;68.72;100976.13;1087137;54;20041;-80
2022/12/27 03:17:28;;;;;;;4.05;1.20;;;;;;;4.61;68.61;100986.72;1087521;54;20942;-81
2022/12/27 03:18:52;;;;;;;6.88;1.35;;;;;;;4.62;68.83;100986.63;1087386;54;20030;-81
2022/12/27 03:25:37;;;;;;;4.40;1.20;;;;;;;4.72;68.90;100986.13;1087315;54;20034;-80
2022/12/27 03:26:43;;;;;;;3.35;1.25;;;;;;;4.67;69.17;100989.03;1087457;54;20042;-80
2022/12/27 03:33:11;;;;;;;6.32;1.40;;;;;;;4.59;69.31;100986.78;1087491;54;21152;-80
2022/12/27 03:33:14;;;;;;;5.88;1.50;;;;;;;4.61;69.81;100999.97;1087489;54;20065;-81
2022/12/27 03:34:34;;;;;;;4.55;1.25;;;;;;;4.49;70.17;101009.38;1092010;39;20339;-80
2022/12/27 03:38:01;;;;;;;6.50;1.48;;;;;;;4.57;70.12;101003.69;1088057;46;20892;-79
2022/12/27 03:38:33;;;;;;;4.82;1.20;;;;;;;4.51;70.48;101002.22;1087396;54;20065;-79
2022/12/27 03:39:37;;;;;;;5.35;1.30;;;;;;;4.48;70.67;101007.72;1087480;54;20058;-81
2022/12/27 03:43:35;;;;;;;4.57;1.35;;;;;;;4.47;70.93;101006.84;1087502;54;20036;-80
2022/12/27 03:44:37;;;;;;;5.32;1.33;;;;;;;4.40;71.16;101005.47;1087487;54;20038;-79
2022/12/27 03:47:28;;;;;;;4.88;1.50;;;;;;;4.47;71.54;101009.47;1087471;54;20019;-80
2022/12/27 03:48:32;;;;;;;4.22;1.30;;;;;;;4.45;71.54;101011.34;1087425;54;20049;-80
2022/12/27 03:49:43;;;;;;;5.82;1.58;;;;;;;4.44;71.58;101006.16;1087434;54;20038;-80
2022/12/27 03:50:48;;;;;;;;;;;;;;;4.39;72.15;101003.75;1088356;46;20042;-80
2022/12/27 03:51:58;;;;;;;7.63;1.83;;;;;;;4.30;72.20;101002.44;1087458;54;19942;-80
2022/12/27 03:53:05;;;;;;;5.00;1.63;;;;;;;4.34;72.13;101000.50;1087547;54;20042;-80
2022/12/27 03:54:14;;;;;;;4.82;1.27;;;;;;;4.31;72.14;101001.50;1087376;54;20119;-80
2022/12/27 03:55:16;;;;;;;4.32;1.35;;;;;;;4.31;72.12;100993.56;1087484;54;20065;-80
2022/12/27 03:56:20;;;;;;;5.65;1.40;;;;;;;4.32;72.53;100997.91;1087420;54;20034;-80
2022/12/27 03:57:29;;;;;;;4.25;1.40;;;;;;;4.48;72.15;100995.31;1087473;54;20065;-79
2022/12/27 03:58:30;;;;;;;6.43;1.60;;;;;;;4.43;71.76;100991.19;1087391;54;20046;-80
2022/12/27 03:59:35;;;;;;;5.47;1.35;;;;;;;4.35;72.28;100991.59;1087196;54;20065;-80
2022/12/27 04:00:37;;;;;;;4.68;1.15;;;;;;;4.48;72.19;100994.47;1087319;54;20046;-81
2022/12/27 04:01:41;;;;;;;5.93;1.48;;;;;;;4.41;72.19;100999.22;1087401;54;20053;-81
2022/12/27 04:02:45;;;;;;;4.45;1.20;;;;;;;4.33;72.66;100993.50;1093017;39;20348;-81
2022/12/27 04:34:46;;;;;;;5.72;1.35;;;;;;;4.20;74.54;101003.88;1088187;54;20018;-84
2022/12/27 04:35:47;;;;;;;5.15;1.30;;;;;;;4.14;74.56;101004.19;1088292;54;20026;-83
2022/12/27 04:37:16;;;;;;;6.25;1.50;;;;;;;4.10;74.88;101008.78;1088231;54;20049;-84
2022/12/27 04:55:21;;;;;;;7.90;1.75;;;;;;;3.93;75.79;101012.28;1088192;54;20041;-83
2022/12/27 04:56:23;;;;;;;3.95;1.30;;;;;;;3.98;75.50;101020.84;1088172;54;20892;-82
2022/12/27 05:02:23;;;;;;;5.25;2.70;;;;;;;4.41;74.33;101031.00;1088444;54;20025;-84
2022/12/27 05:03:26;;;;;;;3.58;1.45;;;;;;;4.48;74.27;101024.44;1088479;54;20041;-81
2022/12/27 05:04:33;;;;;;;4.40;1.30;;;;;;;4.52;74.03;101028.66;1088427;54;20039;-83
2022/12/27 05:05:37;;;;;;;6.05;1.88;;;;;;;4.59;73.83;101034.44;1088363;54;20037;-83
2022/12/27 05:06:41;;;;;;;4.30;1.20;;;;;;;4.63;73.74;101033.38;1088414;54;20031;-83
2022/12/27 05:14:12;;;;;;;3.63;1.17;;;;;;;4.72;73.39;101050.56;1088283;54;20058;-83
2022/12/27 05:15:16;;;;;;;3.53;1.35;;;;;;;4.74;73.25;101043.38;1088308;54;20030;-83
2022/12/27 05:16:39;;;;;;;4.55;1.23;;;;;;;4.75;73.45;101053.03;1094804;39;20668;-83
2022/12/27 05:17:47;;;;;;;3.72;1.40;;;;;;;4.81;73.42;101059.78;1100163;39;20702;-83
2022/12/27 05:19:07;;;;;;;4.05;1.20;;;;;;;4.83;73.38;101052.63;1088352;54;20035;-84
2022/12/27 05:20:12;;;;;;;5.22;1.42;;;;;;;4.71;73.42;101062.09;1088378;54;20070;-82
2022/12/27 05:21:23;;;;;;;4.32;1.58;;;;;;;4.64;73.83;101060.69;1088439;54;20026;-83
2022/12/27 05:26:41;;;;;;;4.50;1.17;;;;;;;4.48;73.98;101064.16;1088150;54;20019;-83
2022/12/27 05:27:43;;;;;;;5.72;1.90;;;;;;;4.50;74.20;101057.00;1088092;54;20034;-83
2022/12/27 05:28:45;;;;;;;5.75;1.40;;;;;;;4.57;74.01;101065.47;1088132;54;20035;-82
2022/12/27 05:29:49;;;;;;;4.07;1.38;;;;;;;4.53;74.02;101064.75;1088016;54;20022;-82
2022/12/27 05:30:50;;;;;;;5.03;1.20;;;;;;;4.56;74.21;101065.53;1088018;54;20038;-82
2022/12/27 05:32:01;;;;;;;3.20;1.20;;;;;;;4.66;73.80;101066.78;1088162;54;20027;-82
2022/12/27 05:37:50;;;;;;;4.00;1.13;;;;;;;4.76;73.54;101059.19;1087804;54;20061;-83
2022/12/27 05:38:52;;;;;;;4.05;1.40;;;;;;;4.64;73.78;101060.69;1088415;54;20034;-83
2022/12/27 05:39:56;;;;;;;3.80;1.58;;;;;;;4.71;73.80;101061.22;1088871;39;20649;-84
2022/12/27 05:40:58;;;;;;;5.30;1.30;;;;;;;4.69;73.75;101054.22;1100536;39;20688;-82
2022/12/27 05:42:12;;;;;;;6.13;1.52;;;;;;;4.61;74.12;101058.22;1088365;54;20081;-82
2022/12/27 05:43:14;;;;;;;4.43;1.30;;;;;;;4.59;74.02;101058.28;1088414;54;20034;-82
2022/12/27 05:44:18;;;;;;;5.15;1.25;;;;;;;4.44;74.44;101059.94;1088321;54;20693;-83
2022/12/27 05:45:20;;;;;;;4.95;1.40;;;;;;;4.42;74.89;101058.31;1091378;39;20630;-81
2022/12/27 05:46:26;;;;;;;4.05;1.40;;;;;;;4.46;74.45;101057.25;1087791;54;20037;-80
2022/12/27 05:47:27;;;;;;;5.35;1.63;;;;;;;4.32;74.77;101056.16;1087681;54;20057;-80
2022/12/27 05:48:32;;;;;;;4.95;1.30;;;;;;;4.28;75.30;101064.34;1087723;54;20102;-79
2022/12/27 05:49:33;;;;;;;5.75;1.75;;;;;;;4.30;75.04;101054.53;1087727;54;20651;-81
2022/12/27 05:50:37;;;;;;;7.38;1.70;;;;;;;4.24;75.34;101057.50;1087782;54;20026;-80
2022/12/27 05:51:41;;;;;;;5.22;1.33;;;;;;;4.16;75.21;101053.44;1090009;39;20594;-79
2022/12/27 05:52:43;;;;;;;8.45;2.00;;;;;;;4.06;75.63;101049.59;1087524;54;20069;-79
2022/12/27 05:53:50;;;;;;;4.85;1.70;;;;;;;4.06;75.52;101057.53;1087634;54;20035;-80
2022/12/27 05:54:52;;;;;;;5.22;1.60;;;;;;;4.24;75.00;101054.88;1087657;54;20034;-79
2022/12/27 05:55:56;;;;;;;5.85;1.42;;;;;;;4.22;74.64;101054.91;1087654;54;20065;-80
2022/12/27 05:56:58;;;;;;;6.60;1.73;;;;;;;4.21;74.96;101056.72;1087704;54;20057;-80
2022/12/27 05:58:02;;;;;;;4.85;1.40;;;;;;;4.34;74.38;101056.09;1087886;46;20035;-80
2022/12/27 05:59:07;;;;;;;5.30;1.58;;;;;;;4.38;74.13;101065.56;1087742;54;20022;-79
2022/12/27 06:00:11;;;;;;;4.00;1.58;;;;;;;4.38;74.21;101060.28;1087775;54;20866;-80
2022/12/27 06:01:18;;;;;;;4.90;1.50;;;;;;;4.40;74.23;101061.06;1087730;54;20090;-80
2022/12/27 06:02:20;;;;;;;6.30;2.28;;;;;;;4.29;74.37;101056.34;1087954;39;20239;-80
2022/12/27 06:03:25;;;;;;;4.63;1.52;;;;;;;4.34;74.45;101069.34;1087825;54;20030;-80
2022/12/27 06:04:26;;;;;;;15.80;2.55;;;;;;;4.37;74.02;101063.88;1092193;31;20807;-79
2022/12/27 06:05:31;;;;;;;5.07;1.90;;;;;;;4.44;74.03;101067.91;1087885;54;20050;-80
2022/12/27 06:06:33;;;;;;;4.90;1.55;;;;;;;4.29;74.05;101063.41;1088017;54;20082;-79
2022/12/27 06:07:38;;;;;;;5.65;1.73;;;;;;;4.21;73.97;101067.31;1088072;54;20042;-80
2022/12/27 06:08:42;;;;;;;5.28;1.48;;;;;;;4.21;74.49;101074.38;1088098;54;20030;-80
2022/12/27 06:09:46;;;;;;;3.97;1.42;;;;;;;4.17;74.15;101068.38;1087913;54;21123;-80
2022/12/27 06:10:52;;;;;;;5.60;1.98;;;;;;;4.19;74.13;101065.69;1088500;54;20026;-80
2022/12/27 06:11:54;;;;;;;6.15;1.90;;;;;;;4.16;74.17;101071.97;1106100;46;20267;-80
2022/12/27 06:13:04;;;;;;;3.70;1.70;;;;;;;4.17;74.14;101076.34;1090113;46;20045;-80
2022/12/27 06:14:06;;;;;;;7.28;1.80;;;;;;;4.22;74.10;101076.09;1088874;46;20034;-80
2022/12/27 06:15:11;;;;;;;6.78;1.85;;;;;;;4.18;74.15;101078.03;1090084;46;20030;-80
2022/12/27 06:16:12;;;;;;;4.53;1.98;;;;;;;4.31;73.55;101080.91;1091021;46;20053;-79
2022/12/27 06:17:16;;;;;;;5.63;1.90;;;;;;;4.19;74.09;101077.13;1089218;46;20030;-81
2022/12/27 06:18:18;;;;;;;4.25;1.70;;;;;;;4.09;74.45;101080.31;1087677;54;20057;-80
2022/12/27 06:19:22;;;;;;;6.20;1.67;;;;;;;4.03;74.45;101081.47;1088977;39;20742;-80
2022/12/27 06:20:24;;;;;;;6.13;1.63;;;;;;;4.02;74.48;101075.31;1087655;54;20065;-78
2022/12/27 06:21:28;;;;;;;6.35;1.63;;;;;;;4.00;74.94;101078.97;1087583;54;20037;-79
2022/12/27 06:22:30;;;;;;;8.95;1.85;;;;;;;3.90;74.88;101079.44;1087572;54;20069;-81
2022/12/27 06:23:34;;;;;;;6.93;1.77;;;;;;;3.82;75.24;101084.25;1087594;54;20041;-80
2022/12/27 06:24:36;;;;;;;5.30;1.70;;;;;;;3.79;75.16;101083.56;1087590;54;20058;-80
2022/12/27 06:25:43;;;;;;;5.38;1.63;;;;;;;3.79;75.37;101083.56;1087597;54;20037;-80
2022/12/27 06:26:44;;;;;;;4.43;1.65;;;;;;;3.78;75.47;101085.31;1087556;54;20037;-80
2022/12/27 06:27:48;;;;;;;4.97;1.77;;;;;;;3.72;75.59;101078.59;1088564;39;20680;-80
2022/12/27 06:28:51;;;;;;;6.35;1.90;;;;;;;3.68;75.68;101086.75;1087654;54;20058;-79
2022/12/27 06:29:55;;;;;;;5.20;1.50;;;;;;;3.68;75.44;101079.66;1087635;54;20034;-80
2022/12/27 06:30:57;;;;;;;7.32;2.08;;;;;;;3.50;76.22;101078.75;1087578;54;20045;-80
2022/12/27 06:32:02;;;;;;;6.53;1.63;;;;;;;3.58;75.84;101076.59;1088565;46;20041;-80
2022/12/27 06:33:03;;;;;;;6.10;1.58;;;;;;;3.58;75.76;101081.03;1087688;54;20034;-80
2022/12/27 06:34:08;;;;;;;4.65;1.35;;;;;;;3.57;75.80;101080.19;1087913;54;20030;-81
2022/12/27 06:35:10;;;;;;;5.53;1.60;;;;;;;3.60;75.60;101079.16;1087751;54;20038;-80
2022/12/27 06:36:15;;;;;;;6.15;1.70;;;;;;;3.63;75.57;101084.31;1087522;54;20631;-79
2022/12/27 06:37:17;;;;;;;6.30;1.98;;;;;;;3.60;75.70;101081.81;1087400;54;20042;-79
2022/12/27 06:38:21;;;;;;;5.47;1.80;;;;;;;3.61;75.54;101090.59;1087049;54;20098;-80
2022/12/27 06:39:23;;;;;;;5.25;1.77;;;;;;;3.63;75.34;101078.16;1087512;54;20042;-79
2022/12/27 06:40:27;;;;;;;4.65;1.58;;;;;;;3.67;75.38;101079.72;1087473;54;20046;-80
2022/12/27 06:41:31;;;;;;;5.68;1.83;;;;;;;3.66;75.10;101084.16;1087253;54;20043;-79
2022/12/27 06:42:35;;;;;;;5.00;1.50;;;;;;;3.63;75.24;101083.44;1087598;54;20036;-80
2022/12/27 06:43:38;;;;;;;5.35;1.40;;;;;;;3.59;75.23;101094.16;1087535;54;20054;-81
2022/12/27 06:44:42;;;;;;;6.80;1.80;;;;;;;3.67;74.96;101083.22;1087298;54;20039;-79
2022/12/27 06:45:44;;;;;;;5.15;1.60;;;;;;;3.59;75.00;101088.03;1087525;54;20090;-79
2022/12/27 06:46:48;;;;;;;4.07;1.63;;;;;;;3.53;75.42;101086.53;1087332;54;20042;-79
2022/12/27 06:47:49;;;;;;;9.10;1.77;;;;;;;3.49;75.65;101087.63;1087236;54;20042;-79
2022/12/27 06:48:54;;;;;;;5.70;1.52;;;;;;;3.57;75.05;101088.13;1087382;54;20047;-80
2022/12/27 06:49:58;;;;;;;5.28;1.60;;;;;;;3.62;75.10;101087.03;1087572;54;20041;-81
2022/12/27 06:51:03;;;;;;;4.35;1.67;;;;;;;3.62;74.82;101093.19;1087638;54;20046;-81
2022/12/27 06:52:07;;;;;;;5.78;1.58;;;;;;;3.55;75.17;101091.75;1087605;54;20054;-80
2022/12/27 06:53:08;;;;;;;4.47;1.23;;;;;;;3.59;74.64;101094.16;1087639;54;20069;-80
2022/12/27 06:54:13;;;;;;;4.90;1.35;;;;;;;3.66;74.79;101093.88;1087573;54;20030;-80
2022/12/27 06:55:14;;;;;;;8.68;2.65;;;;;;;3.57;74.69;101096.06;1087513;54;20693;-79
2022/12/27 06:56:20;;;;;;;6.38;2.13;;;;;;;3.54;74.46;101098.84;1087484;54;20035;-80
2022/12/27 06:57:24;;;;;;;4.10;1.58;;;;;;;3.49;74.57;101092.91;1087460;54;20064;-80
2022/12/27 06:58:29;;;;;;;4.68;1.42;;;;;;;3.48;74.83;101098.25;1087608;54;20042;-80
2022/12/27 06:59:30;;;;;;;5.05;1.77;;;;;;;3.46;74.77;101101.00;1087617;54;20062;-80
2022/12/27 07:00:34;;;;;;;4.45;1.50;;;;;;;3.54;74.85;101101.47;1087652;54;20034;-81
2022/12/27 07:01:39;;;;;;;6.32;2.25;;;;;;;3.46;74.74;101103.63;1087484;54;20113;-79